Time;durP1;ratioP1;P1;durP2;ratioP2;P2;SDS_P1;SDS_P2;PMS_P1;PMS_P2;Temp;Humidity;BMP_temperature;BMP_pressure;BME280_temperature;BME280_humidity;BME280_pressure;Samples;Min_cycle;Max_cycle;Signal;HPM_P1;HPM_P2
2021/05/02 00:00:33;;;;;;;17.08;9.51;;;;;;;;;;348351;151;857479;-62
2021/05/02 00:01:35;;;;;;;13.69;10.43;;;;;;;;;;352660;150;857240;-63
2021/05/02 00:02:36;;;;;;;12.70;9.93;;;;;;;;;;356684;151;858278;-62
2021/05/02 00:03:38;;;;;;;16.10;9.91;;;;;;;;;;354942;150;857801;-62
2021/05/02 00:04:40;;;;;;;12.76;9.85;;;;;;;;;;356499;150;859909;-61
2021/05/02 00:05:41;;;;;;;12.86;10.40;;;;;;;;;;356721;151;859168;-62
2021/05/02 00:06:43;;;;;;;13.64;9.53;;;;;;;;;;353997;150;857512;-62
2021/05/02 00:07:45;;;;;;;15.29;10.31;;;;;;;;;;355015;150;865053;-63
2021/05/02 00:08:46;;;;;;;11.95;9.47;;;;;;;;;;352721;151;865021;-62
2021/05/02 00:09:48;;;;;;;16.14;10.55;;;;;;;;;;354225;150;857346;-61
2021/05/02 00:10:51;;;;;;;15.40;10.64;;;;;;;;;;354284;151;857290;-61
2021/05/02 00:11:53;;;;;;;12.54;9.51;;;;;;;;;;352462;150;857419;-62
2021/05/02 00:12:55;;;;;;;13.37;9.75;;;;;;;;;;355613;150;865908;-61
2021/05/02 00:13:56;;;;;;;11.58;9.75;;;;;;;;;;356286;151;858703;-62
2021/05/02 00:14:58;;;;;;;12.36;9.50;;;;;;;;;;353203;150;859128;-61
2021/05/02 00:16:00;;;;;;;12.64;9.06;;;;;;;;;;341833;157;857801;-62
2021/05/02 00:17:01;;;;;;;13.91;9.56;;;;;;;;;;341633;157;857402;-62
2021/05/02 00:18:03;;;;;;;12.80;9.31;;;;;;;;;;339197;156;857397;-61
2021/05/02 00:19:09;;;;;;;12.24;8.27;;;;;;;;;;346727;155;857410;-61
2021/05/02 00:20:12;;;;;;;10.78;8.51;;;;;;;;;;345346;153;857207;-61
2021/05/02 00:21:14;;;;;;;10.72;8.53;;;;;;;;;;340818;155;859603;-61
2021/05/02 00:22:16;;;;;;;14.99;9.38;;;;;;;;;;344855;155;857313;-62
2021/05/02 00:23:18;;;;;;;11.73;8.36;;;;;;;;;;345284;153;856529;-62
2021/05/02 00:24:21;;;;;;;10.59;8.13;;;;;;;;;;341629;155;856354;-62
2021/05/02 00:25:25;;;;;;;9.39;7.41;;;;;;;;;;344398;153;856792;-62
2021/05/02 00:26:27;;;;;;;11.24;7.58;;;;;;;;;;343623;153;856111;-62
2021/05/02 00:27:28;;;;;;;13.27;7.83;;;;;;;;;;347524;155;856162;-61
2021/05/02 00:28:33;;;;;;;12.84;7.86;;;;;;;;;;343572;153;863803;-61
2021/05/02 00:29:35;;;;;;;9.13;7.64;;;;;;;;;;345011;155;856215;-62
2021/05/02 00:30:37;;;;;;;9.72;7.07;;;;;;;;;;346865;155;856878;-62
2021/05/02 00:33:17;;;;;;;10.83;6.96;;;;;;;17.02;62.89;99311.94;377775;142;881159;-62
2021/05/02 00:34:19;;;;;;;9.34;6.46;;;;;;;16.94;62.91;99312.23;367151;144;857761;-62
2021/05/02 00:35:22;;;;;;;10.16;7.29;;;;;;;16.92;62.92;99307.09;358879;147;866044;-61
2021/05/02 00:36:26;;;;;;;10.87;6.89;;;;;;;16.91;62.90;99304.53;365489;144;865211;-61
2021/05/02 00:37:28;;;;;;;8.20;6.74;;;;;;;16.92;63.00;99309.70;366441;144;857254;-61
2021/05/02 00:38:30;;;;;;;8.00;7.13;;;;;;;;;;366078;144;866298;-62
2021/05/02 00:39:31;;;;;;;9.44;7.15;;;;;;;;;;369494;144;859136;-62
2021/05/02 00:40:38;;;;;;;10.59;6.11;;;;;;;;;;365870;147;858327;-62
2021/05/02 00:41:41;;;;;;;9.64;7.29;;;;;;;;;;369466;144;865199;-62
2021/05/02 00:42:44;;;;;;;8.83;6.81;;;;;;;;;;369137;144;857341;-62
2021/05/02 00:43:48;;;;;;;11.24;7.11;;;;;;;;;;363422;147;857862;-62
2021/05/02 00:44:49;;;;;;;9.04;6.86;;;;;;;;;;365974;144;857251;-63
2021/05/02 00:45:56;;;;;;;9.37;6.70;;;;;;;;;;366254;146;857839;-62
2021/05/02 00:47:11;;;;;;;8.19;6.38;;;;;;;;;;366494;144;857303;-62
2021/05/02 00:48:27;;;;;;;11.83;6.90;;;;;;;;;;365951;144;859716;-62
2021/05/02 00:49:29;;;;;;;10.10;6.75;;;;;;;;;;370765;144;858004;-62
2021/05/02 00:50:34;;;;;;;10.28;6.53;;;;;;;;;;361585;147;857940;-62
2021/05/02 00:51:37;;;;;;;9.51;6.60;;;;;;;;;;354987;147;866159;-62
2021/05/02 00:52:51;;;;;;;10.04;6.91;;;;;;;;;;364408;146;857913;-63
2021/05/02 00:54:09;;;;;;;11.40;7.22;;;;;;;;;;361340;147;857850;-62
2021/05/02 00:55:13;;;;;;;8.77;6.29;;;;;;;;;;365256;147;860069;-63
2021/05/02 00:56:17;;;;;;;9.59;6.36;;;;;;;;;;362094;147;859228;-62
2021/05/02 00:57:20;;;;;;;9.31;6.57;;;;;;;;;;364466;147;857952;-62
2021/05/02 00:58:23;;;;;;;9.26;6.99;;;;;;;;;;360171;146;859240;-62
2021/05/02 00:59:27;;;;;;;7.47;6.14;;;;;;;;;;360870;147;857380;-62
2021/05/02 01:00:33;;;;;;;10.28;5.94;;;;;;;;;;362178;147;857310;-62
2021/05/02 01:01:37;;;;;;;8.22;6.40;;;;;;;;;;362584;147;857313;-63
2021/05/02 01:02:38;;;;;;;7.02;5.88;;;;;;;;;;358577;147;859083;-63
2021/05/02 01:03:40;;;;;;;10.19;6.10;;;;;;;;;;363416;146;859096;-62
2021/05/02 01:04:42;;;;;;;8.63;6.11;;;;;;;;;;365356;147;865009;-63
2021/05/02 01:05:44;;;;;;;11.88;6.05;;;;;;;;;;364478;147;859434;-63
2021/05/02 01:06:46;;;;;;;7.89;5.81;;;;;;;;;;360821;147;857286;-62
2021/05/02 01:07:47;;;;;;;8.17;5.95;;;;;;;;;;355116;151;858133;-62
2021/05/02 01:08:50;;;;;;;8.97;6.14;;;;;;;;;;355549;149;865877;-64
2021/05/02 01:09:52;;;;;;;6.63;5.38;;;;;;;;;;365304;146;858646;-62
2021/05/02 01:10:54;;;;;;;7.31;5.73;;;;;;;;;;361879;147;858743;-62
2021/05/02 01:11:57;;;;;;;8.18;5.98;;;;;;;;;;362464;146;858645;-63
2021/05/02 01:12:59;;;;;;;7.46;5.75;;;;;;;;;;361157;147;857650;-63
2021/05/02 01:14:01;;;;;;;11.98;6.34;;;;;;;;;;362919;147;864961;-62
2021/05/02 01:15:03;;;;;;;8.79;5.59;;;;;;;;;;360134;146;857365;-63
2021/05/02 01:16:06;;;;;;;8.47;5.95;;;;;;;;;;352957;150;857895;-62
2021/05/02 01:17:07;;;;;;;8.31;5.33;;;;;;;;;;355606;149;859338;-62
2021/05/02 01:18:09;;;;;;;9.07;5.70;;;;;;;;;;360264;147;857212;-62
2021/05/02 01:19:11;;;;;;;6.39;5.58;;;;;;;;;;359416;150;865102;-62
2021/05/02 01:20:14;;;;;;;7.95;5.61;;;;;;;;;;360961;146;857374;-62
2021/05/02 01:32:56;;;;;;;6.01;4.38;;;;;;;16.10;65.19;99284.45;374225;142;874763;-62
2021/05/02 01:34:01;;;;;;;5.57;4.54;;;;;;;16.00;65.12;99285.75;365302;146;857208;-62
2021/05/02 01:35:07;;;;;;;8.44;4.42;;;;;;;15.99;65.09;99286.66;363875;145;859055;-61
2021/05/02 01:36:09;;;;;;;7.17;5.09;;;;;;;15.96;65.13;99281.56;362982;145;857311;-61
2021/05/02 01:37:11;;;;;;;9.41;5.04;;;;;;;15.90;65.21;99283.52;360246;146;857789;-61
2021/05/02 01:38:13;;;;;;;10.67;5.45;;;;;;;15.89;65.34;99283.56;361732;145;865863;-62
2021/05/02 01:39:15;;;;;;;7.94;5.10;;;;;;;15.89;65.34;99283.56;364747;145;857505;-62
2021/05/02 01:40:19;;;;;;;6.85;5.20;;;;;;;15.85;65.38;99274.95;368092;145;857463;-61
2021/05/02 01:41:20;;;;;;;6.84;5.41;;;;;;;15.85;65.45;99280.18;364810;144;857432;-61
2021/05/02 01:42:22;;;;;;;8.12;5.21;;;;;;;15.84;65.54;99268.04;365127;144;857192;-61
2021/05/02 01:43:24;;;;;;;6.58;5.30;;;;;;;15.83;65.57;99275.95;363534;145;864828;-61
2021/05/02 01:44:26;;;;;;;6.72;5.09;;;;;;;15.83;65.56;99274.17;361307;145;864887;-61
2021/05/02 01:45:28;;;;;;;9.01;5.38;;;;;;;15.83;65.56;99270.73;367789;145;857200;-61
2021/05/02 01:46:33;;;;;;;7.81;5.31;;;;;;;15.84;65.58;99275.88;362460;146;865225;-61
2021/05/02 01:47:39;;;;;;;8.11;4.75;;;;;;;15.84;65.57;99272.42;365612;144;859485;-61
2021/05/02 01:48:40;;;;;;;7.24;5.43;;;;;;;15.85;65.54;99274.12;373229;144;859108;-61
2021/05/02 01:49:48;;;;;;;7.52;5.49;;;;;;;15.84;65.49;99265.44;365072;146;857671;-60
2021/05/02 01:50:56;;;;;;;7.70;5.24;;;;;;;15.85;65.53;99271.52;360915;147;865361;-62
2021/05/02 01:51:58;;;;;;;7.74;5.62;;;;;;;15.85;65.40;99271.52;358683;149;857152;-61
2021/05/02 01:52:59;;;;;;;9.41;5.14;;;;;;;15.85;65.32;99271.52;343578;154;857373;-61
2021/05/02 01:54:01;;;;;;;7.06;5.18;;;;;;;15.84;65.45;99269.81;351078;151;866819;-61
2021/05/02 01:55:03;;;;;;;6.71;5.30;;;;;;;15.81;65.41;99265.56;356263;148;864758;-61
2021/05/02 01:56:05;;;;;;;5.51;4.80;;;;;;;15.79;65.40;99269.98;358097;150;866595;-61
2021/05/02 01:57:08;;;;;;;8.95;5.64;;;;;;;15.67;65.27;99250.47;361477;147;864891;-61
2021/05/02 01:58:10;;;;;;;7.23;5.35;;;;;;;15.67;65.27;99250.47;359737;147;864909;-61
2021/05/02 01:59:13;;;;;;;5.90;5.20;;;;;;;15.71;65.72;99256.41;366892;147;860608;-61
2021/05/02 02:00:26;;;;;;;7.26;5.66;;;;;;;15.71;65.82;99256.41;358985;147;866321;-61
2021/05/02 02:01:29;;;;;;;7.16;5.35;;;;;;;15.70;65.73;99259.92;345125;154;858168;-61
2021/05/02 02:02:31;;;;;;;6.33;5.04;;;;;;;15.69;65.68;99256.48;360015;149;857369;-63
2021/05/02 02:03:33;;;;;;;7.01;5.46;;;;;;;15.66;65.80;99253.13;359719;148;857920;-62
2021/05/02 02:04:35;;;;;;;9.09;5.59;;;;;;;15.65;65.88;99248.82;358336;148;866454;-61
2021/05/02 02:05:38;;;;;;;5.96;5.34;;;;;;;15.65;65.88;99248.82;356684;147;857873;-61
2021/05/02 02:06:41;;;;;;;5.91;5.25;;;;;;;15.65;65.97;99251.43;357718;148;864925;-61
2021/05/02 02:07:43;;;;;;;8.14;5.42;;;;;;;15.66;65.85;99254.00;357636;150;857711;-61
2021/05/02 02:08:45;;;;;;;7.53;5.46;;;;;;;15.68;65.89;99253.91;357917;147;864848;-61
2021/05/02 02:09:47;;;;;;;6.82;5.66;;;;;;;15.69;65.91;99253.00;356601;149;858846;-61
2021/05/02 02:10:49;;;;;;;7.59;5.54;;;;;;;15.67;65.78;99252.22;357672;148;865935;-61
2021/05/02 02:11:52;;;;;;;8.17;5.47;;;;;;;15.66;65.93;99263.08;356571;148;859051;-61
2021/05/02 02:12:53;;;;;;;6.38;5.56;;;;;;;;;;356183;151;866872;-62
2021/05/02 02:13:55;;;;;;;9.59;5.32;;;;;;;;;;357452;148;857459;-61
2021/05/02 02:14:57;;;;;;;6.40;5.61;;;;;;;;;;361680;148;865077;-62
2021/05/02 02:15:59;;;;;;;8.62;5.34;;;;;;;;;;358822;147;857269;-62
2021/05/02 02:17:01;;;;;;;6.71;4.83;;;;;;;;;;351588;150;857318;-61
2021/05/02 02:18:03;;;;;;;9.07;5.67;;;;;;;;;;349602;150;857798;-62
2021/05/02 02:19:04;;;;;;;6.91;5.18;;;;;;;;;;358114;148;858980;-62
2021/05/02 02:20:06;;;;;;;7.29;5.47;;;;;;;;;;357918;148;858877;-62
2021/05/02 02:21:08;;;;;;;8.09;5.84;;;;;;;;;;358647;149;859609;-62
2021/05/02 02:22:10;;;;;;;9.25;5.79;;;;;;;;;;357647;148;864955;-62
2021/05/02 02:23:17;;;;;;;7.01;5.36;;;;;;;;;;357231;148;858586;-62
2021/05/02 02:24:19;;;;;;;8.87;5.33;;;;;;;;;;358578;148;865430;-62
2021/05/02 02:25:20;;;;;;;8.15;5.49;;;;;;;;;;358628;148;859694;-62
2021/05/02 02:26:35;;;;;;;7.18;5.32;;;;;;;;;;356773;148;857397;-62
2021/05/02 02:27:37;;;;;;;7.66;5.68;;;;;;;;;;357655;148;859547;-62
2021/05/02 02:28:38;;;;;;;7.56;5.27;;;;;;;;;;357801;148;859303;-62
2021/05/02 02:29:44;;;;;;;10.34;5.69;;;;;;;;;;356492;147;857351;-62
2021/05/02 02:30:48;;;;;;;7.75;5.69;;;;;;;;;;356314;149;859693;-63
2021/05/02 02:31:49;;;;;;;6.12;5.17;;;;;;;;;;359358;147;860343;-62
2021/05/02 02:32:51;;;;;;;6.23;4.88;;;;;;;;;;358962;149;858679;-62
2021/05/02 02:33:52;;;;;;;7.01;5.28;;;;;;;;;;355617;150;865004;-62
2021/05/02 02:34:55;;;;;;;7.61;5.17;;;;;;;;;;356695;149;857338;-61
2021/05/02 02:35:56;;;;;;;7.21;5.45;;;;;;;;;;357271;150;856807;-62
2021/05/02 02:36:58;;;;;;;6.84;5.21;;;;;;;;;;355186;149;857340;-62
2021/05/02 02:38:05;;;;;;;6.65;5.10;;;;;;;;;;352965;149;866617;-62
2021/05/02 02:39:04;;;;;;;7.66;5.15;;;;;;;;;;356664;148;856523;-62
2021/05/02 02:40:06;;;;;;;8.16;5.39;;;;;;;;;;355079;149;856259;-62
2021/05/02 02:41:09;;;;;;;7.39;5.33;;;;;;;;;;355894;150;856798;-62
2021/05/02 02:42:11;;;;;;;7.18;4.91;;;;;;;;;;348481;153;856216;-62
2021/05/02 02:43:12;;;;;;;8.71;4.93;;;;;;;;;;349811;150;863875;-62
2021/05/02 02:44:14;;;;;;;7.63;5.29;;;;;;;;;;357012;150;856366;-63
2021/05/02 02:45:16;;;;;;;6.63;5.16;;;;;;;;;;356827;149;856594;-62
2021/05/02 02:46:19;;;;;;;6.57;5.09;;;;;;;;;;355237;148;856458;-62
2021/05/02 02:47:21;;;;;;;6.13;5.23;;;;;;;;;;355688;150;863840;-62
2021/05/02 02:48:23;;;;;;;6.39;4.96;;;;;;;;;;356598;148;856269;-62
2021/05/02 02:49:25;;;;;;;10.13;5.47;;;;;;;;;;355258;151;856155;-63
2021/05/02 02:50:29;;;;;;;14.65;5.12;;;;;;;;;;354217;148;856280;-63
2021/05/02 02:53:16;;;;;;;5.89;4.47;;;;;;;15.68;65.88;99227.82;373576;142;882267;-61
2021/05/02 02:54:17;;;;;;;7.91;5.04;;;;;;;15.59;66.16;99226.45;364174;145;859145;-61
2021/05/02 02:55:23;;;;;;;8.39;4.92;;;;;;;15.61;66.16;99222.85;357785;150;865008;-61
2021/05/02 02:56:28;;;;;;;7.40;4.92;;;;;;;15.65;65.87;99220.12;357214;146;865255;-62
2021/05/02 02:57:31;;;;;;;6.50;5.04;;;;;;;15.70;65.81;99223.39;364391;145;858079;-62
2021/05/02 02:58:35;;;;;;;4.94;4.34;;;;;;;15.73;65.58;99224.13;361759;147;865793;-62
2021/05/02 02:59:36;;;;;;;7.59;4.87;;;;;;;15.73;65.57;99228.48;363429;145;866665;-61
2021/05/02 03:00:40;;;;;;;6.50;4.80;;;;;;;;;;362256;146;857375;-62
2021/05/02 03:01:42;;;;;;;8.43;4.94;;;;;;;;;;362899;146;858291;-60
2021/05/02 03:02:52;;;;;;;6.89;4.37;;;;;;;;;;363174;145;865511;-62
2021/05/02 03:03:54;;;;;;;6.82;4.41;;;;;;;;;;364425;145;857279;-61
2021/05/02 03:04:55;;;;;;;8.47;4.88;;;;;;;;;;364441;145;859418;-61
2021/05/02 03:05:58;;;;;;;7.54;4.75;;;;;;;;;;364742;145;857314;-61
2021/05/02 03:06:59;;;;;;;6.04;4.58;;;;;;;;;;362161;144;857432;-61
2021/05/02 03:08:02;;;;;;;7.35;4.69;;;;;;;;;;363411;145;857751;-61
2021/05/02 03:09:04;;;;;;;6.01;4.66;;;;;;;;;;365611;145;866909;-61
2021/05/02 03:10:07;;;;;;;6.99;4.19;;;;;;;;;;362866;147;857305;-61
2021/05/02 03:11:09;;;;;;;7.44;4.58;;;;;;;;;;361217;145;864852;-60
2021/05/02 03:12:11;;;;;;;4.97;4.09;;;;;;;;;;359218;150;866514;-61
2021/05/02 03:13:12;;;;;;;7.29;3.97;;;;;;;;;;363999;146;857811;-60
2021/05/02 03:14:14;;;;;;;5.92;4.19;;;;;;;;;;363399;145;858221;-60
2021/05/02 03:15:15;;;;;;;5.66;4.24;;;;;;;;;;363786;145;857430;-61
2021/05/02 03:16:20;;;;;;;6.15;4.41;;;;;;;;;;364322;145;857412;-61
2021/05/02 03:17:23;;;;;;;5.76;4.16;;;;;;;;;;363047;146;858865;-61
2021/05/02 03:18:26;;;;;;;6.32;4.21;;;;;;;;;;361274;145;865248;-63
2021/05/02 03:19:28;;;;;;;5.78;4.19;;;;;;;;;;361503;145;857246;-63
2021/05/02 03:20:34;;;;;;;8.52;4.40;;;;;;;;;;362635;145;860104;-62
2021/05/02 03:21:44;;;;;;;5.85;4.55;;;;;;;;;;363358;146;858765;-62
2021/05/02 03:22:47;;;;;;;6.54;4.53;;;;;;;;;;364028;147;856155;-61
2021/05/02 03:23:49;;;;;;;5.69;4.11;;;;;;;;;;363949;145;858827;-61
2021/05/02 03:24:50;;;;;;;8.55;4.28;;;;;;;;;;366532;145;860143;-62
2021/05/02 03:25:52;;;;;;;5.53;4.48;;;;;;;;;;360781;147;857284;-62
2021/05/02 03:26:55;;;;;;;6.25;4.30;;;;;;;;;;356178;149;857635;-63
2021/05/02 03:27:58;;;;;;;5.72;4.58;;;;;;;;;;357770;147;857216;-62
2021/05/02 03:29:00;;;;;;;7.70;4.47;;;;;;;;;;367447;144;857185;-63
2021/05/02 03:30:06;;;;;;;4.65;3.98;;;;;;;;;;361198;146;866570;-61
2021/05/02 03:31:06;;;;;;;7.24;4.07;;;;;;;;;;361006;147;857599;-61
2021/05/02 03:32:10;;;;;;;5.91;3.90;;;;;;;;;;365251;147;857753;-62
2021/05/02 03:33:12;;;;;;;6.32;4.55;;;;;;;;;;362959;146;859748;-62
2021/05/02 03:34:13;;;;;;;6.49;4.15;;;;;;;;;;363222;144;857969;-61
2021/05/02 03:35:15;;;;;;;8.01;4.02;;;;;;;;;;363584;146;859908;-61
2021/05/02 03:36:19;;;;;;;6.28;3.95;;;;;;;;;;361470;147;859569;-61
2021/05/02 03:37:23;;;;;;;4.66;3.72;;;;;;;;;;365126;147;866410;-61
2021/05/02 03:38:43;;;;;;;7.59;4.37;;;;;;;;;;360843;145;857445;-62
2021/05/02 03:39:48;;;;;;;5.91;4.11;;;;;;;;;;363889;145;857857;-61
2021/05/02 03:40:50;;;;;;;6.21;4.03;;;;;;;;;;362559;145;865764;-61
2021/05/02 03:41:52;;;;;;;5.80;4.03;;;;;;;;;;362405;145;859494;-62
2021/05/02 03:42:53;;;;;;;5.09;3.83;;;;;;;;;;365742;147;858389;-61
2021/05/02 03:43:55;;;;;;;5.51;3.69;;;;;;;;;;363069;146;857302;-61
2021/05/02 03:44:56;;;;;;;6.08;4.11;;;;;;;;;;363629;144;857211;-61
2021/05/02 03:45:58;;;;;;;7.68;4.04;;;;;;;;;;365168;147;857351;-62
2021/05/02 03:47:00;;;;;;;6.97;4.11;;;;;;;;;;363548;144;857444;-61
2021/05/02 03:48:01;;;;;;;6.24;4.36;;;;;;;;;;363029;148;865409;-61
2021/05/02 03:49:04;;;;;;;6.10;4.14;;;;;;;;;;360798;145;860194;-61
2021/05/02 03:50:07;;;;;;;6.21;4.19;;;;;;;;;;361991;145;865645;-62
2021/05/02 03:51:08;;;;;;;4.67;4.11;;;;;;;;;;365070;146;859213;-61
2021/05/02 03:52:12;;;;;;;8.89;4.37;;;;;;;;;;362271;146;860275;-62
2021/05/02 03:53:13;;;;;;;5.93;4.15;;;;;;;;;;361961;147;857538;-61
2021/05/02 03:54:15;;;;;;;7.52;4.09;;;;;;;;;;361630;148;858748;-61
2021/05/02 03:55:16;;;;;;;7.71;4.19;;;;;;;;;;360660;146;858774;-62
2021/05/02 03:56:39;;;;;;;8.61;4.36;;;;;;;;;;361485;143;856526;-62
2021/05/02 03:57:40;;;;;;;5.42;3.90;;;;;;;;;;358906;147;865750;-62
2021/05/02 03:58:42;;;;;;;5.55;4.43;;;;;;;;;;361641;144;859101;-62
2021/05/02 03:59:43;;;;;;;9.39;4.23;;;;;;;;;;357834;148;858772;-63
2021/05/02 04:00:45;;;;;;;7.26;4.44;;;;;;;;;;363386;146;857209;-61
2021/05/02 04:01:49;;;;;;;6.86;4.20;;;;;;;;;;362297;146;864757;-61
2021/05/02 04:02:50;;;;;;;5.28;4.12;;;;;;;;;;356139;150;864932;-61
2021/05/02 04:03:52;;;;;;;7.37;4.21;;;;;;;;;;361336;144;857410;-60
2021/05/02 04:04:53;;;;;;;6.06;4.57;;;;;;;;;;359859;147;864866;-61
2021/05/02 04:05:55;;;;;;;8.72;3.99;;;;;;;;;;364178;148;857271;-60
2021/05/02 04:06:59;;;;;;;7.43;3.88;;;;;;;;;;361682;147;857202;-61
2021/05/02 04:08:00;;;;;;;6.70;3.89;;;;;;;;;;358081;148;865786;-60
2021/05/02 04:09:07;;;;;;;10.61;4.34;;;;;;;;;;359260;146;859232;-61
2021/05/02 04:10:10;;;;;;;6.78;4.23;;;;;;;;;;361848;146;868520;-63
2021/05/02 04:11:12;;;;;;;7.11;4.41;;;;;;;;;;359914;148;857603;-61
2021/05/02 04:12:13;;;;;;;6.63;4.42;;;;;;;;;;356646;147;858471;-61
2021/05/02 04:13:15;;;;;;;7.24;4.13;;;;;;;;;;359759;149;857456;-61
2021/05/02 04:14:17;;;;;;;5.44;3.96;;;;;;;;;;358078;149;865424;-61
2021/05/02 04:15:19;;;;;;;5.21;3.86;;;;;;;;;;356319;147;859216;-61
2021/05/02 04:16:22;;;;;;;6.78;4.39;;;;;;;;;;357450;150;859199;-61
2021/05/02 04:17:23;;;;;;;5.04;3.64;;;;;;;;;;357759;149;857214;-62
2021/05/02 04:18:31;;;;;;;5.43;4.45;;;;;;;;;;358184;148;858715;-62
2021/05/02 04:19:41;;;;;;;7.94;4.50;;;;;;;;;;356711;149;858557;-61
2021/05/02 04:20:43;;;;;;;7.46;4.34;;;;;;;;;;350581;150;857845;-62
2021/05/02 04:21:44;;;;;;;8.03;3.97;;;;;;;;;;344217;154;858820;-64
2021/05/02 04:22:46;;;;;;;7.66;4.16;;;;;;;;;;350291;153;865713;-62
2021/05/02 04:23:48;;;;;;;8.37;4.17;;;;;;;;;;351107;150;857682;-62
2021/05/02 04:24:50;;;;;;;4.89;3.79;;;;;;;;;;351353;150;857641;-61
2021/05/02 04:25:51;;;;;;;5.74;4.06;;;;;;;;;;351214;151;857410;-62
2021/05/02 04:26:53;;;;;;;6.92;4.61;;;;;;;;;;343584;152;857418;-61
2021/05/02 04:27:55;;;;;;;7.50;4.39;;;;;;;;;;345072;153;865813;-62
2021/05/02 04:28:56;;;;;;;6.59;4.80;;;;;;;;;;344519;153;857382;-62
2021/05/02 04:29:58;;;;;;;8.81;4.09;;;;;;;;;;344498;155;858688;-63
2021/05/02 04:31:00;;;;;;;6.77;4.36;;;;;;;;;;342973;155;858890;-62
2021/05/02 04:32:01;;;;;;;7.54;4.26;;;;;;;;;;343596;153;857406;-63
2021/05/02 04:33:03;;;;;;;5.22;4.21;;;;;;;;;;346533;152;857337;-62
2021/05/02 04:34:05;;;;;;;5.21;3.91;;;;;;;;;;350366;150;866735;-62
2021/05/02 04:35:07;;;;;;;6.93;4.60;;;;;;;;;;345336;153;865453;-62
2021/05/02 04:36:09;;;;;;;7.19;4.58;;;;;;;;;;351859;151;858526;-62
2021/05/02 04:37:11;;;;;;;7.18;4.56;;;;;;;;;;348108;153;859193;-61
2021/05/02 04:38:13;;;;;;;7.27;3.90;;;;;;;;;;348428;152;857451;-62
2021/05/02 04:39:15;;;;;;;8.37;4.35;;;;;;;;;;348898;154;858455;-62
2021/05/02 04:40:18;;;;;;;8.34;4.41;;;;;;;;;;349131;153;857606;-63
2021/05/02 04:41:19;;;;;;;6.18;4.08;;;;;;;;;;347967;154;858185;-62
2021/05/02 04:42:21;;;;;;;7.00;4.51;;;;;;;;;;348970;154;857476;-61
2021/05/02 04:43:22;;;;;;;4.74;3.79;;;;;;;;;;345888;152;857990;-62
2021/05/02 04:44:24;;;;;;;8.43;4.45;;;;;;;;;;352306;151;859138;-62
2021/05/02 04:45:25;;;;;;;7.67;4.19;;;;;;;;;;348932;152;858260;-62
2021/05/02 04:46:27;;;;;;;6.88;4.41;;;;;;;;;;346317;151;859387;-62
2021/05/02 04:47:29;;;;;;;6.49;4.50;;;;;;;;;;345859;153;865844;-62
2021/05/02 04:48:30;;;;;;;9.84;4.55;;;;;;;;;;346332;152;857294;-62
2021/05/02 04:49:32;;;;;;;6.44;4.14;;;;;;;;;;346427;151;857322;-62
2021/05/02 04:50:34;;;;;;;4.78;3.94;;;;;;;;;;348577;151;857366;-62
2021/05/02 04:51:35;;;;;;;6.64;4.31;;;;;;;;;;347534;153;857226;-62
2021/05/02 04:52:39;;;;;;;8.38;4.34;;;;;;;;;;342652;153;857500;-63
2021/05/02 04:53:44;;;;;;;8.09;4.12;;;;;;;;;;348973;151;856923;-62
2021/05/02 04:54:45;;;;;;;6.82;4.22;;;;;;;;;;343579;153;856494;-62
2021/05/02 04:55:47;;;;;;;7.35;4.19;;;;;;;;;;348310;151;856345;-61
2021/05/02 04:56:49;;;;;;;6.34;4.51;;;;;;;;;;342674;154;864074;-63
2021/05/02 04:57:50;;;;;;;5.91;4.23;;;;;;;;;;342625;154;863739;-62
2021/05/02 04:58:52;;;;;;;6.64;3.87;;;;;;;;;;344088;153;864070;-62
2021/05/02 04:59:53;;;;;;;7.21;4.47;;;;;;;;;;350065;152;856227;-62
2021/05/02 05:00:55;;;;;;;5.97;4.06;;;;;;;;;;349837;152;856240;-61
2021/05/02 05:01:57;;;;;;;5.49;4.06;;;;;;;;;;350799;150;863855;-61
2021/05/02 05:02:59;;;;;;;9.81;4.18;;;;;;;;;;349861;152;863744;-62
2021/05/02 05:04:00;;;;;;;8.21;4.29;;;;;;;;;;351161;150;856823;-61
2021/05/02 05:05:02;;;;;;;7.21;4.24;;;;;;;;;;350814;152;856507;-61
2021/05/02 05:06:04;;;;;;;10.86;4.17;;;;;;;;;;350533;152;856234;-61
2021/05/02 05:07:05;;;;;;;7.39;3.51;;;;;;;;;;350383;151;863810;-61
2021/05/02 05:08:07;;;;;;;6.87;4.46;;;;;;;;;;350525;152;856429;-61
2021/05/02 05:09:08;;;;;;;6.30;4.31;;;;;;;;;;349915;152;856717;-62
2021/05/02 05:10:10;;;;;;;6.66;4.41;;;;;;;;;;349975;152;856321;-62
2021/05/02 05:11:12;;;;;;;6.97;4.45;;;;;;;;;;350267;152;863927;-62
2021/05/02 05:12:13;;;;;;;5.66;4.26;;;;;;;;;;350138;150;856407;-62
2021/05/02 05:13:15;;;;;;;6.19;4.11;;;;;;;;;;343753;154;856780;-61
2021/05/02 05:14:17;;;;;;;5.45;3.84;;;;;;;;;;344392;154;857488;-62
2021/05/02 05:15:18;;;;;;;7.39;4.29;;;;;;;;;;350401;150;857562;-61
2021/05/02 05:16:20;;;;;;;6.39;4.17;;;;;;;;;;350199;152;863977;-62
2021/05/02 05:17:22;;;;;;;7.76;4.42;;;;;;;;;;343239;153;857371;-62
2021/05/02 05:18:23;;;;;;;6.89;4.02;;;;;;;;;;343210;153;856540;-61
2021/05/02 05:19:25;;;;;;;8.78;3.93;;;;;;;;;;343220;154;863772;-62
2021/05/02 05:20:27;;;;;;;6.41;3.76;;;;;;;;;;343738;153;864988;-62
2021/05/02 05:21:29;;;;;;;5.47;4.16;;;;;;;;;;347645;152;862453;-62
2021/05/02 05:22:30;;;;;;;8.42;4.36;;;;;;;;;;344661;154;865191;-62
2021/05/02 05:23:32;;;;;;;5.64;4.17;;;;;;;;;;345093;153;857252;-61
2021/05/02 05:24:33;;;;;;;6.56;4.08;;;;;;;;;;343720;154;857384;-61
2021/05/02 05:25:35;;;;;;;5.85;4.21;;;;;;;;;;342299;154;857782;-61
2021/05/02 05:26:37;;;;;;;4.85;3.73;;;;;;;;;;348257;151;857465;-62
2021/05/02 05:27:39;;;;;;;10.33;4.61;;;;;;;;;;347635;152;856405;-63
2021/05/02 05:28:40;;;;;;;7.15;3.63;;;;;;;;;;348081;152;856605;-61
2021/05/02 05:29:42;;;;;;;6.79;4.46;;;;;;;;;;347568;151;856367;-62
2021/05/02 05:30:43;;;;;;;6.40;4.25;;;;;;;;;;348508;151;857000;-62
2021/05/02 05:31:45;;;;;;;5.76;3.98;;;;;;;;;;347723;152;864169;-63
2021/05/02 05:32:46;;;;;;;7.96;4.93;;;;;;;;;;347874;151;856556;-62
2021/05/02 05:33:48;;;;;;;5.79;3.81;;;;;;;;;;348391;151;856223;-62
2021/05/02 05:34:49;;;;;;;6.41;4.26;;;;;;;;;;348441;151;856288;-62
2021/05/02 05:35:51;;;;;;;7.19;4.02;;;;;;;;;;348784;152;856369;-62
2021/05/02 05:36:53;;;;;;;7.76;3.81;;;;;;;;;;348953;152;856372;-61
2021/05/02 05:37:54;;;;;;;6.43;4.11;;;;;;;;;;348454;151;856276;-62
2021/05/02 05:38:56;;;;;;;6.26;4.00;;;;;;;;;;348786;152;856232;-62
2021/05/02 05:39:57;;;;;;;8.21;4.30;;;;;;;;;;349133;152;856566;-61
2021/05/02 05:40:59;;;;;;;5.96;4.22;;;;;;;;;;348567;151;856662;-62
2021/05/02 05:42:00;;;;;;;8.61;4.17;;;;;;;;;;348751;152;863822;-62
2021/05/02 05:43:03;;;;;;;8.77;4.21;;;;;;;;;;348510;152;856483;-62
2021/05/02 05:44:05;;;;;;;10.23;4.25;;;;;;;;;;348469;152;856799;-63
2021/05/02 05:45:07;;;;;;;6.41;4.19;;;;;;;;;;347778;152;857342;-62
2021/05/02 05:46:13;;;;;;;5.93;4.12;;;;;;;;;;347894;153;863824;-62
2021/05/02 05:47:12;;;;;;;7.64;4.44;;;;;;;;;;348158;152;856520;-62
2021/05/02 05:48:15;;;;;;;7.97;3.77;;;;;;;;;;347975;154;857114;-62
2021/05/02 05:49:19;;;;;;;9.29;4.38;;;;;;;;;;348483;151;856585;-62
2021/05/02 05:50:21;;;;;;;7.08;4.18;;;;;;;;;;340797;155;856676;-62
2021/05/02 05:51:23;;;;;;;5.63;3.98;;;;;;;;;;343716;153;856433;-62
2021/05/02 05:52:24;;;;;;;8.34;4.31;;;;;;;;;;345052;153;864197;-62
2021/05/02 05:53:26;;;;;;;8.31;4.59;;;;;;;;;;350185;150;856842;-61
2021/05/02 05:54:28;;;;;;;4.76;3.83;;;;;;;;;;350651;151;856340;-62
2021/05/02 05:55:29;;;;;;;6.21;3.81;;;;;;;;;;351526;150;856458;-63
2021/05/02 05:56:32;;;;;;;6.75;4.47;;;;;;;;;;345867;153;856268;-62
2021/05/02 05:57:33;;;;;;;8.75;4.37;;;;;;;;;;346572;151;856391;-63
2021/05/02 05:58:35;;;;;;;10.95;3.97;;;;;;;;;;344421;153;856542;-62
2021/05/02 05:59:36;;;;;;;5.28;3.71;;;;;;;;;;348390;152;856883;-62
2021/05/02 06:00:39;;;;;;;7.43;3.97;;;;;;;;;;348303;151;857439;-62
2021/05/02 06:01:40;;;;;;;9.07;4.14;;;;;;;;;;348562;154;856391;-62
2021/05/02 06:02:42;;;;;;;7.60;4.26;;;;;;;;;;348428;153;863769;-62
2021/05/02 06:03:44;;;;;;;5.61;4.14;;;;;;;;;;348084;151;864014;-62
2021/05/02 06:04:46;;;;;;;7.09;3.95;;;;;;;;;;349117;150;856392;-62
2021/05/02 06:05:48;;;;;;;7.98;4.67;;;;;;;;;;350785;151;863728;-62
2021/05/02 06:06:50;;;;;;;7.61;4.31;;;;;;;;;;351473;151;856128;-62
2021/05/02 06:07:51;;;;;;;7.57;4.24;;;;;;;;;;350476;151;859128;-61
2021/05/02 06:08:53;;;;;;;9.81;4.51;;;;;;;;;;350946;151;860890;-61
2021/05/02 06:09:55;;;;;;;7.48;4.49;;;;;;;;;;346382;153;860104;-61